createdAt,value
2023-03-07T00:01:29.103Z,6.50
2023-03-07T00:03:57.660Z,6.40
2023-03-07T00:06:25.869Z,6.40
2023-03-07T00:08:55.758Z,6.40
2023-03-07T00:11:23.408Z,6.40
2023-03-07T00:13:51.116Z,6.40
2023-03-07T00:16:21.441Z,6.40
2023-03-07T00:18:49.360Z,6.40
2023-03-07T00:21:20.204Z,6.40
2023-03-07T00:23:48.567Z,6.40
2023-03-07T00:26:22.206Z,6.40
2023-03-07T00:28:52.266Z,6.40
2023-03-07T00:31:21.713Z,6.40
2023-03-07T00:33:49.161Z,6.40
2023-03-07T00:36:22.890Z,6.40
2023-03-07T00:38:51.529Z,6.40
2023-03-07T00:41:24.959Z,6.40
2023-03-07T00:43:53.365Z,6.40
2023-03-07T00:46:23.043Z,6.40
2023-03-07T00:48:51.177Z,6.40
2023-03-07T00:51:20.468Z,6.30
2023-03-07T00:53:48.456Z,6.30
2023-03-07T00:56:18.714Z,6.20
2023-03-07T00:58:47.083Z,6.20
2023-03-07T01:01:17.807Z,6.10
2023-03-07T01:03:45.338Z,6.10
2023-03-07T01:06:15.054Z,6.10
2023-03-07T01:08:42.367Z,6.10
2023-03-07T01:11:11.317Z,6.10
2023-03-07T01:13:39.304Z,6.10
2023-03-07T01:16:15.885Z,6.10
2023-03-07T01:18:45.333Z,6.10
2023-03-07T01:21:26.573Z,5.90
2023-03-07T01:23:54.721Z,6.00
2023-03-07T01:26:28.044Z,5.90
2023-03-07T01:28:57.863Z,5.90
2023-03-07T01:31:26.468Z,5.80
2023-03-07T01:33:54.412Z,5.70
2023-03-07T01:36:31.190Z,5.60
2023-03-07T01:39:02.829Z,5.60
2023-03-07T01:41:32.466Z,5.50
2023-03-07T01:44:02.446Z,5.40
2023-03-07T01:47:04.901Z,5.40
2023-03-07T01:49:50.654Z,5.30
2023-03-07T01:52:23.197Z,5.20
2023-03-07T01:54:56.150Z,5.20
2023-03-07T01:57:27.398Z,5.10
2023-03-07T01:59:57.612Z,5.10
2023-03-07T02:02:25.997Z,5.00
2023-03-07T02:05:11.656Z,4.90
2023-03-07T02:07:46.356Z,4.70
2023-03-07T02:10:15.410Z,4.50
2023-03-07T02:12:43.302Z,4.40
2023-03-07T02:15:13.004Z,4.20
2023-03-07T02:17:42.014Z,4.10
2023-03-07T02:20:15.704Z,4.00
2023-03-07T02:22:43.345Z,4.00
2023-03-07T02:25:22.552Z,4.00
2023-03-07T02:27:53.203Z,4.00
2023-03-07T02:30:21.208Z,4.00
2023-03-07T02:32:48.757Z,3.90
2023-03-07T02:35:20.194Z,4.00
2023-03-07T02:37:52.306Z,3.90
2023-03-07T02:40:23.550Z,4.00
2023-03-07T02:42:54.814Z,4.00
2023-03-07T02:45:22.100Z,4.00
2023-03-07T02:47:49.512Z,3.90
2023-03-07T02:50:17.411Z,3.80
2023-03-07T02:52:45.850Z,3.80
2023-03-07T02:55:13.709Z,3.80
2023-03-07T02:57:41.370Z,3.80
2023-03-07T03:00:11.299Z,3.80
2023-03-07T03:02:38.953Z,3.80
2023-03-07T03:05:07.218Z,3.80
2023-03-07T03:07:34.755Z,3.80
2023-03-07T03:10:02.415Z,3.70
2023-03-07T03:12:29.904Z,3.70
2023-03-07T03:14:57.550Z,3.70
2023-03-07T03:17:24.910Z,3.70
2023-03-07T03:19:52.340Z,3.70
2023-03-07T03:22:20.645Z,3.80
2023-03-07T03:24:48.212Z,3.80
2023-03-07T03:27:15.804Z,3.80
2023-03-07T03:29:43.213Z,3.80
2023-03-07T03:32:10.752Z,3.80
2023-03-07T03:34:38.395Z,3.80
2023-03-07T03:37:05.694Z,3.80
2023-03-07T03:39:33.006Z,3.70
2023-03-07T03:42:00.599Z,3.70
2023-03-07T03:44:28.014Z,3.70
2023-03-07T03:46:56.200Z,3.70
2023-03-07T03:49:23.759Z,3.70
2023-03-07T03:51:51.108Z,3.60
2023-03-07T03:54:18.364Z,3.60
2023-03-07T03:56:45.863Z,3.50
2023-03-07T03:59:13.498Z,3.30
2023-03-07T04:01:40.914Z,3.30
2023-03-07T04:04:08.559Z,3.20
2023-03-07T04:06:36.101Z,3.10
2023-03-07T04:09:05.489Z,3.20
2023-03-07T04:11:33.217Z,3.10
2023-03-07T04:14:01.147Z,3.20
2023-03-07T04:16:28.494Z,3.20
2023-03-07T04:18:55.910Z,3.10
2023-03-07T04:21:23.602Z,3.10
2023-03-07T04:23:55.485Z,3.20
2023-03-07T04:26:23.377Z,3.10
2023-03-07T04:28:50.753Z,3.10
2023-03-07T04:31:19.322Z,3.00
2023-03-07T04:33:47.568Z,3.10
2023-03-07T04:36:18.883Z,3.10
2023-03-07T04:38:46.707Z,3.10
2023-03-07T04:41:19.663Z,3.10
2023-03-07T04:43:47.492Z,3.10
2023-03-07T04:46:17.157Z,3.20
2023-03-07T04:48:45.994Z,3.20
2023-03-07T04:51:14.044Z,3.30
2023-03-07T04:53:41.543Z,3.30
2023-03-07T04:56:09.945Z,3.30
2023-03-07T04:58:38.008Z,3.30
2023-03-07T05:01:06.175Z,3.40
2023-03-07T05:03:35.042Z,3.40
2023-03-07T05:06:08.091Z,3.30
2023-03-07T05:08:35.695Z,3.30
2023-03-07T05:11:03.309Z,3.30
2023-03-07T05:13:30.701Z,3.20
2023-03-07T05:15:59.318Z,3.20
2023-03-07T05:18:26.950Z,3.20
2023-03-07T05:20:54.350Z,3.10
2023-03-07T05:23:22.040Z,3.10
2023-03-07T05:25:50.083Z,3.10
2023-03-07T05:28:19.105Z,3.20
2023-03-07T05:30:47.081Z,3.10
2023-03-07T05:33:15.212Z,3.20
2023-03-07T05:35:42.736Z,3.20
2023-03-07T05:38:10.395Z,3.30
2023-03-07T05:40:38.242Z,3.30
2023-03-07T05:43:05.794Z,3.40
2023-03-07T05:45:33.195Z,3.40
2023-03-07T05:48:00.596Z,3.40
2023-03-07T05:50:28.253Z,3.30
2023-03-07T05:52:55.648Z,3.40
2023-03-07T05:55:23.209Z,3.40
2023-03-07T05:57:50.740Z,3.40
2023-03-07T06:00:18.793Z,3.40
2023-03-07T06:02:46.371Z,3.40
2023-03-07T06:05:14.347Z,3.40
2023-03-07T06:07:41.626Z,3.40
2023-03-07T06:10:09.844Z,3.40
2023-03-07T06:12:37.453Z,3.40
2023-03-07T06:15:05.697Z,3.40
2023-03-07T06:17:33.049Z,3.40
2023-03-07T06:20:00.496Z,3.30
2023-03-07T06:22:28.022Z,3.30
2023-03-07T06:24:55.449Z,3.30
2023-03-07T06:27:22.997Z,3.30
2023-03-07T06:29:50.394Z,3.30
2023-03-07T06:32:17.884Z,3.30
2023-03-07T06:34:45.636Z,3.20
2023-03-07T06:37:13.008Z,3.30
2023-03-07T06:39:40.438Z,3.30
2023-03-07T06:42:08.053Z,3.30
2023-03-07T06:44:35.786Z,3.30
2023-03-07T06:47:03.349Z,3.40
2023-03-07T06:49:30.907Z,3.40
2023-03-07T06:51:58.461Z,3.40
2023-03-07T06:54:26.153Z,3.30
2023-03-07T06:56:55.163Z,3.30
2023-03-07T06:59:22.896Z,3.30
2023-03-07T07:01:50.278Z,3.30
2023-03-07T07:04:17.695Z,3.40
2023-03-07T07:06:45.239Z,3.40
2023-03-07T07:09:14.255Z,3.50
2023-03-07T07:11:43.789Z,3.50
2023-03-07T07:14:11.599Z,3.60
2023-03-07T07:16:39.533Z,3.60
2023-03-07T07:19:07.040Z,3.60
2023-03-07T07:21:34.387Z,3.50
2023-03-07T07:24:01.785Z,3.50
2023-03-07T07:26:30.002Z,3.50
2023-03-07T07:28:57.488Z,3.60
2023-03-07T07:31:25.123Z,3.60
2023-03-07T07:33:52.498Z,3.60
2023-03-07T07:36:22.836Z,3.50
2023-03-07T07:38:50.560Z,3.50
2023-03-07T07:41:20.793Z,3.60
2023-03-07T07:43:50.245Z,3.60
2023-03-07T07:46:17.842Z,3.60
2023-03-07T07:48:47.984Z,3.60
2023-03-07T07:51:15.558Z,3.60
2023-03-07T07:53:43.151Z,3.70
2023-03-07T07:56:11.904Z,3.70
2023-03-07T07:58:39.795Z,3.70
2023-03-07T08:01:18.299Z,3.70
2023-03-07T08:03:46.036Z,3.70
2023-03-07T08:06:14.006Z,3.70
2023-03-07T08:08:41.400Z,3.60
2023-03-07T08:11:08.649Z,3.60
2023-03-07T08:13:36.311Z,3.70
2023-03-07T08:16:11.706Z,3.60
2023-03-07T08:18:39.236Z,3.60
2023-03-07T08:21:07.243Z,3.60
2023-03-07T08:23:35.791Z,3.60
2023-03-07T08:26:08.999Z,3.70
2023-03-07T08:28:37.606Z,3.80
2023-03-07T08:31:31.540Z,3.70
2023-03-07T08:33:58.997Z,3.80
2023-03-07T08:36:26.508Z,3.90
2023-03-07T08:38:53.969Z,4.00
2023-03-07T08:41:23.017Z,4.10
2023-03-07T08:43:53.511Z,4.20
2023-03-07T08:46:20.930Z,4.20
2023-03-07T08:48:48.544Z,4.30
2023-03-07T08:51:18.196Z,4.30
2023-03-07T08:53:46.317Z,4.20
2023-03-07T08:56:19.096Z,4.20
2023-03-07T08:58:46.995Z,4.20
2023-03-07T09:01:14.745Z,4.20
2023-03-07T09:03:43.553Z,4.30
2023-03-07T09:06:18.043Z,4.40
2023-03-07T09:08:45.903Z,4.30
2023-03-07T09:11:14.100Z,4.20
2023-03-07T09:13:51.345Z,4.20
2023-03-07T09:16:20.292Z,4.20
2023-03-07T09:18:48.120Z,4.30
2023-03-07T09:21:15.631Z,4.30
2023-03-07T09:23:43.497Z,4.40
2023-03-07T09:26:11.346Z,4.40
2023-03-07T09:28:38.978Z,4.40
2023-03-07T09:31:11.611Z,4.50
2023-03-07T09:33:40.203Z,4.40
2023-03-07T09:36:10.650Z,4.50
2023-03-07T09:38:39.325Z,4.50
2023-03-07T09:41:16.622Z,4.60
2023-03-07T09:44:11.044Z,4.60
2023-03-07T09:47:11.010Z,4.70
2023-03-07T09:49:53.047Z,4.70
2023-03-07T09:52:24.792Z,4.70
2023-03-07T09:55:25.368Z,4.90
2023-03-07T09:57:58.606Z,5.00
2023-03-07T10:00:36.701Z,5.00
2023-03-07T10:03:32.270Z,5.00
2023-03-07T10:06:16.340Z,5.00
2023-03-07T10:08:43.997Z,5.00
2023-03-07T10:11:57.062Z,5.00
2023-03-07T10:14:40.398Z,5.20
2023-03-07T10:17:17.842Z,5.20
2023-03-07T10:19:49.277Z,5.00
2023-03-07T10:22:36.895Z,5.00
2023-03-07T10:25:52.850Z,5.10
2023-03-07T10:28:31.011Z,5.20
2023-03-07T10:31:15.261Z,5.20
2023-03-07T10:33:46.140Z,5.20
2023-03-07T10:36:29.480Z,5.20
2023-03-07T10:39:25.438Z,5.20
2023-03-07T10:41:53.894Z,5.30
2023-03-07T10:44:22.546Z,5.40
2023-03-07T10:46:57.556Z,5.30
2023-03-07T10:49:33.026Z,5.30
2023-03-07T10:52:12.658Z,5.40
2023-03-07T10:54:40.337Z,5.50
2023-03-07T10:57:09.294Z,5.60
2023-03-07T10:59:43.780Z,5.50
2023-03-07T11:02:23.486Z,5.60
2023-03-07T11:04:52.663Z,5.60
2023-03-07T11:07:35.883Z,5.70
2023-03-07T11:10:25.394Z,5.70
2023-03-07T11:12:56.021Z,5.70
2023-03-07T11:15:24.847Z,5.60
2023-03-07T11:17:53.428Z,5.70
2023-03-07T11:20:30.353Z,5.70
2023-03-07T11:23:17.323Z,5.70
2023-03-07T11:25:45.337Z,5.80
2023-03-07T11:28:26.624Z,5.80
2023-03-07T11:31:04.470Z,5.70
2023-03-07T11:33:59.583Z,5.70
2023-03-07T11:36:37.895Z,5.70
2023-03-07T11:39:36.514Z,5.60
2023-03-07T11:42:17.345Z,5.60
2023-03-07T11:44:48.028Z,5.60
2023-03-07T11:47:21.540Z,5.50
2023-03-07T11:50:25.162Z,5.50
2023-03-07T11:53:16.618Z,5.50
2023-03-07T11:55:50.093Z,5.50
2023-03-07T11:58:39.531Z,5.50
2023-03-07T12:01:40.879Z,5.50
2023-03-07T12:04:23.385Z,5.60
2023-03-07T12:06:59.438Z,5.80
2023-03-07T12:09:45.436Z,6.00
2023-03-07T12:12:29.135Z,6.20
2023-03-07T12:15:06.538Z,6.20
2023-03-07T12:17:53.851Z,6.20
2023-03-07T12:20:46.924Z,6.20
2023-03-07T12:23:27.982Z,6.20
2023-03-07T12:25:59.295Z,6.10
2023-03-07T12:28:35.285Z,6.20
2023-03-07T12:31:15.160Z,6.00
2023-03-07T12:34:06.179Z,6.00
2023-03-07T12:36:36.556Z,6.10
2023-03-07T12:39:16.391Z,6.20
2023-03-07T12:42:03.188Z,6.30
2023-03-07T12:44:49.501Z,6.20
2023-03-07T12:47:53.362Z,6.30
2023-03-07T12:50:29.084Z,6.30
2023-03-07T12:52:56.683Z,6.30
2023-03-07T12:55:34.727Z,6.20
2023-03-07T12:58:07.575Z,6.20
2023-03-07T13:00:39.974Z,6.30
2023-03-07T13:03:13.635Z,6.30
2023-03-07T13:05:44.039Z,6.10
2023-03-07T13:08:20.584Z,5.60
2023-03-07T13:10:48.466Z,5.30
2023-03-07T13:13:43.700Z,5.00
2023-03-07T13:16:13.540Z,4.80
2023-03-07T13:18:41.128Z,4.60
2023-03-07T13:21:15.888Z,4.40
2023-03-07T13:23:44.330Z,4.40
2023-03-07T13:26:13.565Z,4.20
2023-03-07T13:28:46.004Z,4.20
2023-03-07T13:31:16.580Z,4.10
2023-03-07T13:33:44.328Z,4.20
2023-03-07T13:36:31.282Z,4.20
2023-03-07T13:38:58.781Z,4.30
2023-03-07T13:41:49.528Z,4.30
2023-03-07T13:44:46.432Z,4.30
2023-03-07T13:47:43.136Z,4.30
2023-03-07T13:50:35.726Z,4.30
2023-03-07T13:53:24.991Z,4.20
2023-03-07T13:56:00.376Z,4.30
2023-03-07T13:58:48.050Z,4.20
2023-03-07T14:01:33.307Z,4.30
2023-03-07T14:04:32.933Z,4.30
2023-03-07T14:07:29.067Z,4.30
2023-03-07T14:10:30.590Z,4.30
2023-03-07T14:13:22.549Z,4.30
2023-03-07T14:16:04.284Z,4.20
2023-03-07T14:18:43.690Z,4.20
2023-03-07T14:21:17.844Z,4.20
2023-03-07T14:23:51.781Z,4.20
2023-03-07T14:26:44.240Z,4.20
2023-03-07T14:29:24.496Z,4.20
2023-03-07T14:31:57.456Z,4.10
2023-03-07T14:34:32.378Z,4.00
2023-03-07T14:37:05.244Z,4.10
2023-03-07T14:39:49.546Z,4.10
2023-03-07T14:42:41.342Z,4.20
2023-03-07T14:45:26.488Z,4.40
2023-03-07T14:48:26.084Z,4.30
2023-03-07T14:50:54.591Z,4.30
2023-03-07T14:53:25.874Z,4.30
2023-03-07T14:55:55.595Z,4.30
2023-03-07T14:58:29.440Z,4.40
2023-03-07T15:01:16.081Z,4.40
2023-03-07T15:03:49.790Z,4.40
2023-03-07T15:06:20.881Z,4.50
2023-03-07T15:08:49.424Z,4.50
2023-03-07T15:11:36.138Z,4.60
2023-03-07T15:14:08.682Z,4.60
2023-03-07T15:16:49.982Z,4.70
2023-03-07T15:19:35.883Z,4.70
2023-03-07T15:22:08.576Z,4.70
2023-03-07T15:24:41.234Z,4.80
2023-03-07T15:27:13.871Z,4.80
2023-03-07T15:29:46.638Z,4.80
2023-03-07T15:32:32.377Z,4.80
2023-03-07T15:35:11.084Z,4.80
2023-03-07T15:38:01.597Z,4.90
2023-03-07T15:40:36.077Z,4.80
2023-03-07T15:43:04.714Z,4.70
2023-03-07T15:45:34.215Z,4.70
2023-03-07T15:48:34.740Z,4.70
2023-03-07T15:51:07.139Z,4.80
2023-03-07T15:53:38.995Z,4.80
2023-03-07T15:56:30.643Z,4.90
2023-03-07T15:59:03.940Z,4.90
2023-03-07T16:01:31.622Z,4.90
2023-03-07T16:04:04.394Z,4.90
2023-03-07T16:06:45.560Z,4.90
2023-03-07T16:09:14.746Z,4.90
2023-03-07T16:11:43.683Z,4.90
2023-03-07T16:14:25.787Z,4.90
2023-03-07T16:16:59.442Z,4.90
2023-03-07T16:19:27.230Z,4.80
2023-03-07T16:21:54.840Z,4.80
2023-03-07T16:24:22.692Z,4.80
2023-03-07T16:26:50.338Z,4.90
2023-03-07T16:29:22.360Z,4.90
2023-03-07T16:31:51.064Z,5.00
2023-03-07T16:34:21.186Z,5.00
2023-03-07T16:36:49.023Z,5.20
2023-03-07T16:39:18.123Z,5.50
2023-03-07T16:41:50.063Z,5.30
2023-03-07T16:44:20.401Z,5.00
2023-03-07T16:47:12.537Z,4.90
2023-03-07T16:49:40.320Z,4.70
2023-03-07T16:52:13.525Z,4.70
2023-03-07T16:54:41.389Z,4.70
2023-03-07T16:57:16.929Z,4.70
2023-03-07T16:59:47.284Z,4.70
2023-03-07T17:02:19.615Z,4.70
2023-03-07T17:04:47.953Z,4.80
2023-03-07T17:07:22.036Z,4.90
2023-03-07T17:09:50.274Z,4.90
2023-03-07T17:12:22.668Z,4.80
2023-03-07T17:14:50.528Z,4.70
2023-03-07T17:17:22.894Z,4.70
2023-03-07T17:19:50.894Z,4.70
2023-03-07T17:22:20.275Z,4.60
2023-03-07T17:24:48.028Z,4.60
2023-03-07T17:27:16.673Z,4.60
2023-03-07T17:29:51.482Z,4.60
2023-03-07T17:32:19.056Z,4.60
2023-03-07T17:34:46.931Z,4.60
2023-03-07T17:37:14.425Z,4.60
2023-03-07T17:39:42.730Z,4.70
2023-03-07T17:42:10.146Z,4.70
2023-03-07T17:44:39.477Z,4.80
2023-03-07T17:47:07.028Z,4.70
2023-03-07T17:49:37.085Z,4.70
2023-03-07T17:52:06.706Z,4.60
2023-03-07T17:54:34.536Z,4.60
2023-03-07T17:57:02.631Z,4.50
2023-03-07T17:59:32.568Z,4.50
2023-03-07T18:02:00.349Z,4.40
2023-03-07T18:04:31.090Z,4.40
2023-03-07T18:06:59.677Z,4.40
2023-03-07T18:09:27.176Z,4.40
2023-03-07T18:11:54.827Z,4.40
2023-03-07T18:14:22.676Z,4.40
2023-03-07T18:16:50.384Z,4.40
2023-03-07T18:19:26.217Z,4.40
2023-03-07T18:21:55.496Z,4.40
2023-03-07T18:24:26.446Z,4.30
2023-03-07T18:26:55.810Z,4.30
2023-03-07T18:29:27.800Z,4.30
2023-03-07T18:31:58.593Z,4.20
2023-03-07T18:34:26.624Z,4.20
2023-03-07T18:36:54.470Z,4.20
2023-03-07T18:39:23.844Z,4.20
2023-03-07T18:41:52.150Z,4.20
2023-03-07T18:44:20.133Z,4.20
2023-03-07T18:46:47.503Z,4.20
2023-03-07T18:49:16.269Z,4.20
2023-03-07T18:51:46.034Z,4.20
2023-03-07T18:54:14.229Z,4.20
2023-03-07T18:56:45.879Z,4.10
2023-03-07T18:59:13.476Z,4.10
2023-03-07T19:01:41.892Z,4.10
2023-03-07T19:04:11.713Z,4.00
2023-03-07T19:06:41.714Z,4.00
2023-03-07T19:09:15.339Z,3.90
2023-03-07T19:11:43.740Z,3.80
2023-03-07T19:14:11.675Z,3.80
2023-03-07T19:16:39.756Z,3.80
2023-03-07T19:19:08.885Z,3.80
2023-03-07T19:21:40.358Z,3.70
2023-03-07T19:24:11.289Z,3.70
2023-03-07T19:26:41.015Z,3.70
2023-03-07T19:29:09.839Z,3.70
2023-03-07T19:31:37.909Z,3.70
2023-03-07T19:34:06.585Z,3.70
2023-03-07T19:36:37.460Z,3.70
2023-03-07T19:39:15.396Z,3.70
2023-03-07T19:41:48.040Z,3.70
2023-03-07T19:44:18.629Z,3.60
2023-03-07T19:46:47.070Z,3.60
2023-03-07T19:49:18.060Z,3.60
2023-03-07T19:51:46.490Z,3.60
2023-03-07T19:54:15.630Z,3.60
2023-03-07T19:56:46.355Z,3.70
2023-03-07T19:59:14.332Z,3.70
2023-03-07T20:01:43.187Z,3.70
2023-03-07T20:04:13.125Z,3.70
2023-03-07T20:06:42.633Z,3.70
2023-03-07T20:09:15.899Z,3.60
2023-03-07T20:11:53.331Z,3.60
2023-03-07T20:14:25.515Z,3.60
2023-03-07T20:16:54.078Z,3.60
2023-03-07T20:19:22.276Z,3.60
2023-03-07T20:21:52.520Z,3.60
2023-03-07T20:24:20.455Z,3.60
2023-03-07T20:26:48.372Z,3.60
2023-03-07T20:29:16.228Z,3.50
2023-03-07T20:31:43.976Z,3.50
2023-03-07T20:34:11.981Z,3.60
2023-03-07T20:36:39.624Z,3.60
2023-03-07T20:39:13.548Z,3.50
2023-03-07T20:41:44.586Z,3.50
2023-03-07T20:44:14.683Z,3.50
2023-03-07T20:46:42.732Z,3.50
2023-03-07T20:49:12.971Z,3.50
2023-03-07T20:51:41.350Z,3.50
2023-03-07T20:54:13.213Z,3.40
2023-03-07T20:56:41.862Z,3.40
2023-03-07T20:59:12.577Z,3.40
2023-03-07T21:01:40.746Z,3.30
2023-03-07T21:04:12.409Z,3.30
2023-03-07T21:06:43.027Z,3.20
2023-03-07T21:09:15.168Z,3.20
2023-03-07T21:11:48.983Z,3.20
2023-03-07T21:14:19.104Z,3.20
2023-03-07T21:16:46.571Z,3.10
2023-03-07T21:19:14.277Z,3.10
2023-03-07T21:21:42.351Z,3.10
2023-03-07T21:24:15.919Z,3.10
2023-03-07T21:26:43.618Z,3.10
2023-03-07T21:29:13.367Z,3.10
2023-03-07T21:31:41.041Z,3.10
2023-03-07T21:34:13.444Z,3.10
2023-03-07T21:36:41.061Z,3.10
2023-03-07T21:39:10.115Z,3.10
2023-03-07T21:41:37.898Z,3.10
2023-03-07T21:44:09.997Z,3.10
2023-03-07T21:46:37.501Z,3.10
2023-03-07T21:49:04.968Z,3.10
2023-03-07T21:51:32.671Z,3.10
2023-03-07T21:54:00.951Z,3.10
2023-03-07T21:56:28.722Z,3.10
2023-03-07T21:58:56.421Z,3.10
2023-03-07T22:01:31.264Z,3.00
2023-03-07T22:04:00.625Z,3.10
2023-03-07T22:06:28.833Z,3.00
2023-03-07T22:08:56.474Z,3.10
2023-03-07T22:11:24.232Z,3.10
2023-03-07T22:13:51.798Z,3.10
2023-03-07T22:16:20.996Z,3.10
2023-03-07T22:18:55.590Z,3.10
2023-03-07T22:21:26.279Z,3.10
2023-03-07T22:24:01.046Z,3.10
2023-03-07T22:26:30.955Z,3.10
2023-03-07T22:28:59.608Z,3.20
2023-03-07T22:31:27.481Z,3.20
2023-03-07T22:33:55.026Z,3.20
2023-03-07T22:36:22.476Z,3.20
2023-03-07T22:38:55.422Z,3.20
2023-03-07T22:41:24.254Z,3.20
2023-03-07T22:43:52.635Z,3.20
2023-03-07T22:46:20.285Z,3.30
2023-03-07T22:48:51.061Z,3.30
2023-03-07T22:51:18.963Z,3.30
2023-03-07T22:53:46.703Z,3.40
2023-03-07T22:56:16.509Z,3.40
2023-03-07T22:58:44.005Z,3.50
2023-03-07T23:01:15.956Z,3.40
2023-03-07T23:03:44.855Z,3.40
2023-03-07T23:06:18.894Z,3.50
2023-03-07T23:08:48.856Z,3.50
2023-03-07T23:11:18.706Z,3.50
2023-03-07T23:13:47.556Z,3.50
2023-03-07T23:16:18.453Z,3.50
2023-03-07T23:18:55.330Z,3.50
2023-03-07T23:21:31.748Z,3.50
2023-03-07T23:24:03.346Z,3.50
2023-03-07T23:26:38.321Z,3.50
2023-03-07T23:29:07.456Z,3.50
2023-03-07T23:31:37.667Z,3.50
2023-03-07T23:34:15.707Z,3.50
2023-03-07T23:36:44.009Z,3.50
2023-03-07T23:39:12.139Z,3.50
2023-03-07T23:41:40.100Z,3.50
2023-03-07T23:44:07.664Z,3.50
2023-03-07T23:46:35.132Z,3.50
2023-03-07T23:49:02.549Z,3.40
2023-03-07T23:51:30.143Z,3.50
2023-03-07T23:53:57.669Z,3.50
2023-03-07T23:56:24.891Z,3.50
2023-03-07T23:58:53.323Z,3.40
